Time;durP1;ratioP1;P1;durP2;ratioP2;P2;SDS_P1;SDS_P2;PMS_P1;PMS_P2;Temp;Humidity;BMP_temperature;BMP_pressure;BME280_temperature;BME280_humidity;BME280_pressure;Samples;Min_cycle;Max_cycle;Signal;HPM_P1;HPM_P2
2023/07/17 00:01:09;;;;;;;0.00;0.00;;;18.90;99.90;;;;;;5031260;28;20041;-53
2023/07/17 00:03:35;;;;;;;0.00;0.00;;;18.80;99.90;;;;;;5032514;28;20350;-54
2023/07/17 00:06:00;;;;;;;0.00;0.00;;;18.90;99.90;;;;;;5036244;28;20036;-56
2023/07/17 00:08:26;;;;;;;0.00;0.00;;;19.00;99.90;;;;;;5030036;28;20091;-60
2023/07/17 00:10:51;;;;;;;0.00;0.00;;;19.10;99.90;;;;;;5034186;28;22386;-58
2023/07/17 00:13:17;;;;;;;0.00;0.00;;;19.10;99.90;;;;;;5034931;28;20034;-62
2023/07/17 00:15:43;;;;;;;0.00;0.00;;;19.00;99.90;;;;;;5039290;28;20035;-61
2023/07/17 00:18:08;;;;;;;0.00;0.00;;;19.10;99.90;;;;;;5033477;28;20033;-55
2023/07/17 00:20:34;;;;;;;0.00;0.00;;;19.00;99.90;;;;;;5035903;28;20343;-53
2023/07/17 00:23:00;;;;;;;0.00;0.00;;;18.90;99.90;;;;;;5033411;28;20037;-54
2023/07/17 00:25:26;;;;;;;0.00;0.00;;;18.70;99.90;;;;;;5029717;28;20100;-57
2023/07/17 00:27:51;;;;;;;0.00;0.00;;;18.60;99.90;;;;;;5031625;28;20072;-55
2023/07/17 00:30:17;;;;;;;0.00;0.00;;;18.70;99.90;;;;;;5035075;28;20114;-55
2023/07/17 00:32:43;;;;;;;0.00;0.00;;;18.60;99.90;;;;;;5032732;28;20037;-59
2023/07/17 00:35:09;;;;;;;0.00;0.00;;;18.40;99.90;;;;;;5036153;28;20079;-56
2023/07/17 00:37:34;;;;;;;0.00;0.00;;;18.50;99.90;;;;;;5029410;28;20022;-54
2023/07/17 00:40:00;;;;;;;0.00;0.00;;;18.40;99.90;;;;;;5035310;28;20041;-60
2023/07/17 00:42:25;;;;;;;0.00;0.00;;;18.40;99.90;;;;;;5027539;28;20033;-59
2023/07/17 00:44:51;;;;;;;0.00;0.00;;;18.50;99.90;;;;;;5032448;28;20053;-56
2023/07/17 00:47:17;;;;;;;0.00;0.00;;;18.20;99.90;;;;;;5031837;28;20588;-56
2023/07/17 00:49:43;;;;;;;0.00;0.00;;;18.40;99.90;;;;;;5028913;28;20033;-59
2023/07/17 00:52:10;;;;;;;0.00;0.00;;;18.10;99.90;;;;;;5034836;28;20663;-53
2023/07/17 00:54:39;;;;;;;0.00;0.00;;;18.10;99.90;;;;;;5034223;28;20342;-55
2023/07/17 00:57:05;;;;;;;0.00;0.00;;;18.00;99.90;;;;;;5023324;28;20033;-54
2023/07/17 00:59:31;;;;;;;0.00;0.00;;;18.30;99.90;;;;;;5033328;28;20544;-54
2023/07/17 01:01:58;;;;;;;0.00;0.00;;;18.30;99.90;;;;;;5026147;28;20095;-56
2023/07/17 01:04:23;;;;;;;0.00;0.00;;;18.50;99.90;;;;;;5030892;28;20029;-53
2023/07/17 01:06:49;;;;;;;0.00;0.00;;;18.60;99.90;;;;;;5037953;28;20033;-56
2023/07/17 01:09:16;;;;;;;0.00;0.00;;;18.70;99.90;;;;;;5028540;28;20095;-55
2023/07/17 01:11:42;;;;;;;0.00;0.00;;;18.80;99.90;;;;;;5034913;28;20488;-54
2023/07/17 01:14:17;;;;;;;0.00;0.00;;;18.90;99.90;;;;;;5033671;28;20097;-57
2023/07/17 01:16:44;;;;;;;0.00;0.00;;;18.80;99.90;;;;;;5030353;28;20543;-54
2023/07/17 01:19:10;;;;;;;0.00;0.00;;;18.70;99.90;;;;;;5033455;28;20029;-54
2023/07/17 01:21:39;;;;;;;0.00;0.00;;;18.50;99.90;;;;;;5032815;28;20572;-54
2023/07/17 01:24:05;;;;;;;0.00;0.00;;;18.40;99.90;;;;;;5031503;28;20581;-57
2023/07/17 01:26:31;;;;;;;0.00;0.00;;;18.30;99.90;;;;;;5028419;28;20064;-58
2023/07/17 01:28:56;;;;;;;0.00;0.00;;;18.20;99.90;;;;;;5035441;28;20049;-57
2023/07/17 01:31:22;;;;;;;0.00;0.00;;;18.20;99.90;;;;;;5033023;28;20048;-52
2023/07/17 01:33:47;;;;;;;0.00;0.00;;;18.10;99.90;;;;;;5034475;28;20430;-55
2023/07/17 01:36:15;;;;;;;0.00;0.00;;;18.10;99.90;;;;;;5033710;28;20044;-54
2023/07/17 01:38:40;;;;;;;0.00;0.00;;;18.00;99.90;;;;;;5030662;28;20132;-54
2023/07/17 01:41:06;;;;;;;0.00;0.00;;;18.00;99.90;;;;;;5032098;28;20178;-53
2023/07/17 01:43:32;;;;;;;0.00;0.00;;;18.10;99.90;;;;;;5029498;28;20108;-57
2023/07/17 01:45:57;;;;;;;0.00;0.00;;;18.00;99.90;;;;;;5032259;28;20030;-55
2023/07/17 01:48:23;;;;;;;0.00;0.00;;;18.00;99.90;;;;;;5027603;28;20168;-52
2023/07/17 01:50:49;;;;;;;0.00;0.00;;;18.00;99.90;;;;;;5038456;28;20029;-55
2023/07/17 01:53:21;;;;;;;0.00;0.00;;;18.00;99.90;;;;;;5032703;28;20436;-53
2023/07/17 01:55:47;;;;;;;0.00;0.00;;;18.00;99.90;;;;;;5041893;28;20031;-54
2023/07/17 01:58:14;;;;;;;0.00;0.00;;;18.10;99.90;;;;;;5034105;28;20535;-54
2023/07/17 02:00:40;;;;;;;0.00;0.00;;;18.10;99.90;;;;;;5031956;28;20033;-53
2023/07/17 02:03:05;;;;;;;0.00;0.00;;;17.90;99.90;;;;;;5039418;28;20036;-57
2023/07/17 02:05:31;;;;;;;0.00;0.00;;;17.80;99.90;;;;;;5036663;28;20030;-55
2023/07/17 02:07:56;;;;;;;0.00;0.00;;;17.90;99.90;;;;;;5034176;28;20117;-58
2023/07/17 02:10:22;;;;;;;0.00;0.00;;;17.70;99.90;;;;;;5031560;28;20056;-56
2023/07/17 02:12:48;;;;;;;0.00;0.00;;;17.80;99.90;;;;;;5042942;28;20029;-54
2023/07/17 02:15:14;;;;;;;0.00;0.00;;;17.80;99.90;;;;;;5037368;28;20033;-55
2023/07/17 02:17:40;;;;;;;0.00;0.00;;;17.80;99.90;;;;;;5033468;28;20029;-55
2023/07/17 02:20:10;;;;;;;0.00;0.00;;;17.70;99.90;;;;;;5051396;28;20035;-58
2023/07/17 02:22:39;;;;;;;0.00;0.00;;;17.60;99.90;;;;;;5029858;28;20029;-56
2023/07/17 02:25:05;;;;;;;0.00;0.00;;;17.50;99.90;;;;;;5032420;28;20052;-52
2023/07/17 02:27:34;;;;;;;0.00;0.00;;;17.50;99.90;;;;;;5043580;28;20692;-56
2023/07/17 02:30:00;;;;;;;0.00;0.00;;;17.60;99.90;;;;;;5035316;28;20440;-55
2023/07/17 02:32:28;;;;;;;0.00;0.00;;;17.70;99.90;;;;;;5031213;28;20037;-60
2023/07/17 02:34:53;;;;;;;0.00;0.00;;;17.50;99.90;;;;;;5032452;28;20413;-55
2023/07/17 02:37:19;;;;;;;0.00;0.00;;;17.60;99.90;;;;;;5032684;28;20099;-53
2023/07/17 02:39:45;;;;;;;0.00;0.00;;;17.50;99.90;;;;;;5032806;28;20044;-54
2023/07/17 02:42:10;;;;;;;0.00;0.00;;;17.50;99.90;;;;;;5029650;28;20072;-58
2023/07/17 02:44:36;;;;;;;0.00;0.00;;;17.60;99.90;;;;;;5032872;28;20048;-59
2023/07/17 02:47:01;;;;;;;0.00;0.00;;;17.50;99.90;;;;;;5030409;28;20064;-52
2023/07/17 02:49:27;;;;;;;0.00;0.00;;;17.50;99.90;;;;;;5035414;28;20032;-57
2023/07/17 02:51:52;;;;;;;0.00;0.00;;;17.50;99.90;;;;;;5037563;28;20040;-57
2023/07/17 02:54:21;;;;;;;0.00;0.00;;;17.40;99.90;;;;;;5031934;28;20681;-53
2023/07/17 02:56:46;;;;;;;0.00;0.00;;;17.20;99.90;;;;;;5039555;28;20496;-52
2023/07/17 02:59:12;;;;;;;0.00;0.00;;;17.00;99.90;;;;;;5036737;28;20144;-54
2023/07/17 03:01:37;;;;;;;0.00;0.00;;;17.10;99.90;;;;;;5038420;28;20041;-54
2023/07/17 03:04:03;;;;;;;0.00;0.00;;;17.20;99.90;;;;;;5032262;28;20112;-54
2023/07/17 03:06:29;;;;;;;0.00;0.00;;;17.20;99.90;;;;;;5033250;28;20040;-53
2023/07/17 03:08:54;;;;;;;0.00;0.00;;;17.20;99.90;;;;;;5038257;28;20044;-54
2023/07/17 03:11:20;;;;;;;0.00;0.00;;;17.10;99.90;;;;;;5028568;28;20172;-54
2023/07/17 03:13:45;;;;;;;0.00;0.00;;;17.20;99.90;;;;;;5034929;28;20536;-54
2023/07/17 03:16:11;;;;;;;0.00;0.00;;;17.30;99.90;;;;;;5035445;28;20036;-54
2023/07/17 03:18:36;;;;;;;0.00;0.00;;;17.20;99.90;;;;;;5031416;28;20033;-54
2023/07/17 03:21:03;;;;;;;0.00;0.00;;;16.90;99.90;;;;;;5033704;28;20040;-53
2023/07/17 03:23:29;;;;;;;0.00;0.00;;;17.00;99.90;;;;;;5034377;28;20032;-53
2023/07/17 03:25:56;;;;;;;4.80;2.33;;;17.00;99.90;;;;;;5034211;28;20373;-55
2023/07/17 03:28:22;;;;;;;9.25;5.97;;;17.00;99.90;;;;;;5034548;28;20053;-54
2023/07/17 03:30:47;;;;;;;0.00;0.00;;;16.80;99.90;;;;;;5034306;28;20812;-54
2023/07/17 03:33:13;;;;;;;8.30;7.05;;;16.80;99.90;;;;;;5038094;28;20040;-53
2023/07/17 03:35:39;;;;;;;12.02;4.85;;;16.80;99.90;;;;;;5031112;28;20032;-57
2023/07/17 03:38:04;;;;;;;12.07;4.75;;;16.60;99.90;;;;;;5033445;28;20030;-53
2023/07/17 03:40:30;;;;;;;10.98;4.40;;;16.50;99.90;;;;;;5033892;28;20496;-55
2023/07/17 03:42:55;;;;;;;9.90;4.30;;;16.80;99.90;;;;;;5034101;28;20033;-55
2023/07/17 03:45:21;;;;;;;12.35;4.75;;;16.90;99.90;;;;;;5032407;28;20041;-53
2023/07/17 03:47:50;;;;;;;7.93;4.32;;;16.70;99.90;;;;;;5033195;28;20390;-54
2023/07/17 03:50:16;;;;;;;1.58;1.45;;;16.70;99.90;;;;;;5032254;28;20034;-54
2023/07/17 03:52:41;;;;;;;12.98;5.47;;;16.50;99.90;;;;;;5035438;28;20032;-53
2023/07/17 03:55:07;;;;;;;7.22;4.15;;;16.50;99.90;;;;;;5035415;28;20497;-54
2023/07/17 03:57:33;;;;;;;10.50;4.28;;;16.40;99.90;;;;;;5032095;28;20026;-51
2023/07/17 03:59:58;;;;;;;10.63;3.78;;;16.40;99.90;;;;;;5032204;28;20345;-54
2023/07/17 04:02:25;;;;;;;14.00;4.57;;;16.50;99.90;;;;;;5031617;28;20070;-54
2023/07/17 04:04:50;;;;;;;13.05;4.75;;;16.60;99.90;;;;;;5034983;28;20031;-55
2023/07/17 04:07:16;;;;;;;11.43;4.70;;;16.80;99.90;;;;;;5037041;28;20448;-54
2023/07/17 04:09:42;;;;;;;9.57;5.85;;;16.50;99.90;;;;;;5032830;28;20033;-55
2023/07/17 04:12:08;;;;;;;12.60;4.80;;;16.80;99.90;;;;;;5036454;28;20036;-53
2023/07/17 04:14:34;;;;;;;13.40;5.40;;;16.80;99.90;;;;;;5043353;28;20543;-57
2023/07/17 04:17:01;;;;;;;11.25;5.35;;;16.70;99.90;;;;;;5036600;28;20535;-53
2023/07/17 04:19:27;;;;;;;4.72;2.33;;;16.70;99.90;;;;;;5034575;28;20497;-54
2023/07/17 04:21:53;;;;;;;1.65;1.55;;;16.80;99.90;;;;;;5032148;28;20850;-53
2023/07/17 04:24:19;;;;;;;2.63;1.38;;;16.90;99.90;;;;;;5032214;28;20128;-53
2023/07/17 04:26:44;;;;;;;11.15;5.28;;;17.00;99.90;;;;;;5040078;28;20033;-55
2023/07/17 04:29:13;;;;;;;0.28;0.20;;;17.00;99.90;;;;;;5031560;28;20046;-55
2023/07/17 04:31:38;;;;;;;7.50;3.25;;;17.10;99.90;;;;;;5027366;28;20528;-54
2023/07/17 04:34:04;;;;;;;7.07;4.20;;;17.10;99.90;;;;;;5027896;28;20048;-54
2023/07/17 04:36:30;;;;;;;14.27;6.03;;;17.00;99.90;;;;;;5030615;28;20221;-55
2023/07/17 04:38:55;;;;;;;11.48;4.72;;;17.30;99.90;;;;;;5028716;28;20036;-53
2023/07/17 04:41:21;;;;;;;10.85;4.95;;;17.20;99.90;;;;;;5029999;28;21012;-55
2023/07/17 04:43:46;;;;;;;16.88;5.35;;;17.20;99.90;;;;;;5034901;28;20070;-53
2023/07/17 04:46:13;;;;;;;12.00;5.03;;;17.30;99.90;;;;;;5035661;28;20063;-53
2023/07/17 04:48:38;;;;;;;14.27;4.72;;;17.30;99.90;;;;;;5035767;28;20028;-54
2023/07/17 04:51:04;;;;;;;15.63;5.50;;;17.30;99.90;;;;;;5036179;28;20029;-54
2023/07/17 04:53:29;;;;;;;12.50;4.93;;;17.30;99.90;;;;;;5035735;28;20397;-53
2023/07/17 04:55:55;;;;;;;10.77;4.72;;;17.40;99.90;;;;;;5037075;28;20029;-53
2023/07/17 04:58:20;;;;;;;14.93;5.25;;;17.50;99.90;;;;;;5038048;28;20040;-54
2023/07/17 05:00:47;;;;;;;12.63;5.70;;;17.60;99.90;;;;;;5031717;28;20037;-52
2023/07/17 05:03:16;;;;;;;10.52;5.28;;;17.60;99.90;;;;;;5033330;28;20033;-52
2023/07/17 05:05:48;;;;;;;15.35;7.95;;;17.50;99.90;;;;;;5031201;28;20029;-54
2023/07/17 05:08:14;;;;;;;9.70;4.28;;;17.50;99.90;;;;;;5023588;28;20122;-53
2023/07/17 05:10:39;;;;;;;11.65;4.13;;;17.60;99.90;;;;;;5030277;28;20532;-54
2023/07/17 05:13:05;;;;;;;5.97;3.38;;;17.50;99.90;;;;;;5038310;28;20060;-54
2023/07/17 05:15:31;;;;;;;11.50;4.20;;;17.60;99.90;;;;;;5042404;28;20037;-56
2023/07/17 05:17:56;;;;;;;11.40;4.30;;;17.60;99.90;;;;;;5032923;28;20025;-57
2023/07/17 05:20:22;;;;;;;9.18;4.05;;;17.60;99.90;;;;;;5029778;28;20948;-52
2023/07/17 05:22:47;;;;;;;8.68;3.60;;;17.70;99.90;;;;;;5036250;28;20075;-51
2023/07/17 05:25:13;;;;;;;11.80;5.07;;;18.00;99.90;;;;;;5030969;28;20068;-54
2023/07/17 05:27:39;;;;;;;9.13;5.13;;;17.90;99.90;;;;;;5036213;28;20045;-54
2023/07/17 05:30:06;;;;;;;10.88;3.92;;;18.00;99.90;;;;;;5030621;28;20060;-52
2023/07/17 05:32:32;;;;;;;11.63;4.65;;;18.00;99.90;;;;;;5035297;28;20407;-54
2023/07/17 05:34:58;;;;;;;9.77;4.28;;;18.00;99.90;;;;;;5038333;28;20121;-52
2023/07/17 05:37:24;;;;;;;7.57;4.13;;;17.90;99.90;;;;;;5032483;28;20166;-53
2023/07/17 05:39:49;;;;;;;14.13;4.47;;;18.00;99.90;;;;;;5037623;28;20040;-53
2023/07/17 05:42:15;;;;;;;13.38;5.00;;;18.10;99.90;;;;;;5032316;28;20067;-54
2023/07/17 05:44:41;;;;;;;10.20;4.55;;;18.30;99.90;;;;;;5033343;28;20468;-53
2023/07/17 05:47:06;;;;;;;9.45;3.92;;;18.20;99.90;;;;;;5027973;28;20033;-52
2023/07/17 05:49:32;;;;;;;10.82;4.93;;;18.30;99.90;;;;;;5035335;28;20057;-55
2023/07/17 05:51:58;;;;;;;12.40;4.55;;;18.40;99.90;;;;;;5033141;28;20397;-52
2023/07/17 05:54:23;;;;;;;11.05;4.72;;;18.30;99.90;;;;;;5040054;28;20033;-53
2023/07/17 05:56:49;;;;;;;12.32;4.53;;;18.40;99.90;;;;;;5028242;28;20107;-54
2023/07/17 05:59:14;;;;;;;9.07;4.40;;;18.40;99.90;;;;;;5035737;28;20382;-54
2023/07/17 06:01:40;;;;;;;10.95;4.93;;;18.50;99.90;;;;;;5034084;28;20052;-53
2023/07/17 06:04:06;;;;;;;13.35;5.25;;;18.70;99.90;;;;;;5034955;28;20369;-54
2023/07/17 06:06:32;;;;;;;10.40;4.68;;;18.70;99.90;;;;;;5039794;28;20476;-53
2023/07/17 06:09:00;;;;;;;9.32;4.57;;;18.60;99.90;;;;;;5036760;28;20048;-54
2023/07/17 06:11:26;;;;;;;11.18;5.03;;;18.80;99.90;;;;;;5036653;28;20805;-54
2023/07/17 06:13:51;;;;;;;12.80;5.15;;;18.80;99.90;;;;;;5034251;28;20033;-54
2023/07/17 06:16:18;;;;;;;14.05;5.30;;;18.80;99.90;;;;;;5032731;28;20033;-53
2023/07/17 06:18:43;;;;;;;11.60;5.00;;;18.80;99.90;;;;;;5035445;28;20528;-56
2023/07/17 06:21:09;;;;;;;12.10;5.82;;;18.70;99.90;;;;;;5027459;28;20120;-60
2023/07/17 06:23:34;;;;;;;14.13;5.60;;;18.70;99.90;;;;;;5033507;28;20073;-55
2023/07/17 06:26:00;;;;;;;13.65;5.88;;;18.70;99.90;;;;;;5031981;28;20362;-55
2023/07/17 06:28:27;;;;;;;9.68;4.97;;;18.90;99.90;;;;;;5034533;28;20029;-60
2023/07/17 06:30:53;;;;;;;18.40;6.95;;;19.00;99.90;;;;;;5036952;28;20036;-53
2023/07/17 06:33:19;;;;;;;11.85;5.35;;;19.20;99.90;;;;;;5033069;28;20463;-53
2023/07/17 06:35:45;;;;;;;10.57;4.72;;;19.10;99.90;;;;;;5039326;28;20438;-64
2023/07/17 06:38:11;;;;;;;11.68;4.97;;;19.10;99.90;;;;;;5040623;28;20576;-58
2023/07/17 06:40:38;;;;;;;11.98;4.82;;;19.30;99.90;;;;;;5040535;28;21218;-62
2023/07/17 06:43:03;;;;;;;13.60;4.82;;;19.30;99.90;;;;;;5036539;28;20512;-62
2023/07/17 06:45:29;;;;;;;14.30;5.05;;;19.30;99.90;;;;;;5037048;28;20044;-56
2023/07/17 06:47:54;;;;;;;11.77;5.03;;;19.10;99.90;;;;;;5036933;28;20473;-59
2023/07/17 06:50:20;;;;;;;12.23;4.50;;;19.20;99.90;;;;;;5034311;28;20029;-52
2023/07/17 06:52:45;;;;;;;16.35;4.55;;;19.30;99.90;;;;;;5037791;28;20416;-54
2023/07/17 06:55:11;;;;;;;16.38;4.63;;;19.30;99.90;;;;;;5033993;28;20075;-54
2023/07/17 06:57:37;;;;;;;13.90;4.63;;;19.40;99.90;;;;;;5032581;28;20060;-59
2023/07/17 07:00:05;;;;;;;10.15;4.55;;;19.30;99.90;;;;;;5040483;28;20242;-56
2023/07/17 07:02:31;;;;;;;10.85;4.10;;;19.40;99.90;;;;;;5036999;28;20319;-54
2023/07/17 07:04:57;;;;;;;14.98;5.45;;;19.40;99.90;;;;;;5037794;28;20060;-56
2023/07/17 07:07:22;;;;;;;14.82;5.68;;;19.60;99.90;;;;;;5033648;28;20025;-53
2023/07/17 07:09:48;;;;;;;12.77;4.75;;;19.70;99.90;;;;;;5034580;28;20033;-56
2023/07/17 07:12:14;;;;;;;13.45;4.50;;;19.70;99.90;;;;;;5040962;28;20033;-53
2023/07/17 07:14:40;;;;;;;12.65;5.53;;;19.70;99.90;;;;;;5036878;28;20250;-54
2023/07/17 07:17:06;;;;;;;14.88;5.80;;;19.50;99.90;;;;;;5033172;28;20138;-54
2023/07/17 07:19:32;;;;;;;10.98;5.03;;;19.80;99.90;;;;;;5041327;28;20524;-59
2023/07/17 07:21:57;;;;;;;12.38;5.40;;;19.70;99.90;;;;;;5041164;28;20098;-55
2023/07/17 07:24:23;;;;;;;12.88;5.50;;;19.70;99.90;;;;;;5043508;28;20086;-56
2023/07/17 07:26:48;;;;;;;15.77;5.28;;;19.90;99.90;;;;;;5039774;28;20036;-58
2023/07/17 07:29:14;;;;;;;13.32;5.90;;;20.10;99.90;;;;;;5045131;28;20044;-53
2023/07/17 07:31:40;;;;;;;13.65;5.32;;;19.80;99.90;;;;;;5043546;28;20565;-55
2023/07/17 07:34:05;;;;;;;11.93;5.43;;;19.80;99.90;;;;;;5038684;28;20078;-55
2023/07/17 07:36:31;;;;;;;12.35;5.60;;;19.80;99.90;;;;;;5041582;28;20059;-53
2023/07/17 07:38:57;;;;;;;11.75;5.22;;;19.80;99.90;;;;;;5041374;28;20021;-55
2023/07/17 07:41:22;;;;;;;11.85;5.07;;;20.00;99.90;;;;;;5043951;28;20055;-53
2023/07/17 07:43:48;;;;;;;11.30;4.75;;;20.20;99.90;;;;;;5041032;28;20485;-54
2023/07/17 07:46:14;;;;;;;10.00;4.78;;;20.30;99.90;;;;;;5037970;28;20049;-56
2023/07/17 07:48:40;;;;;;;11.20;4.95;;;20.50;99.90;;;;;;5036517;28;20044;-53
2023/07/17 07:51:05;;;;;;;11.45;4.57;;;20.40;99.90;;;;;;5039832;28;20029;-51
2023/07/17 07:53:31;;;;;;;11.05;5.10;;;20.50;99.90;;;;;;5042124;28;20194;-55
2023/07/17 07:55:56;;;;;;;10.10;4.93;;;20.50;99.90;;;;;;5037997;28;20656;-57
2023/07/17 07:58:22;;;;;;;16.65;6.45;;;20.60;99.90;;;;;;5044525;28;20033;-55
2023/07/17 08:00:47;;;;;;;21.02;6.40;;;20.60;99.90;;;;;;5043005;28;20025;-55
2023/07/17 08:03:13;;;;;;;12.70;6.30;;;20.20;99.90;;;;;;5039101;28;20404;-56
2023/07/17 08:05:39;;;;;;;16.83;5.90;;;20.30;99.90;;;;;;5040013;28;20063;-60
2023/07/17 08:08:04;;;;;;;19.33;16.75;;;20.30;99.90;;;;;;5044905;28;20029;-53
2023/07/17 08:10:30;;;;;;;15.70;8.32;;;20.40;99.90;;;;;;5043579;28;20033;-58
2023/07/17 08:12:57;;;;;;;17.52;6.00;;;20.50;99.90;;;;;;5032997;28;20030;-59
2023/07/17 08:15:23;;;;;;;19.23;7.93;;;20.60;99.90;;;;;;5038036;28;20124;-55
2023/07/17 08:17:48;;;;;;;23.50;15.68;;;20.60;99.90;;;;;;5040523;28;20183;-56
2023/07/17 08:20:14;;;;;;;17.20;6.47;;;20.30;99.90;;;;;;5039388;28;20037;-55
2023/07/17 08:22:39;;;;;;;16.63;13.20;;;20.20;99.90;;;;;;5034995;28;20048;-59
2023/07/17 08:25:06;;;;;;;13.70;6.10;;;20.10;99.90;;;;;;5032918;28;20543;-54
2023/07/17 08:27:31;;;;;;;17.90;16.00;;;20.20;99.90;;;;;;5038778;28;20068;-54
2023/07/17 08:29:57;;;;;;;12.20;6.10;;;20.30;99.90;;;;;;5042465;28;20106;-55
2023/07/17 08:32:22;;;;;;;17.13;13.50;;;20.50;99.90;;;;;;5037628;28;20041;-61
2023/07/17 08:34:48;;;;;;;17.05;10.20;;;20.60;99.90;;;;;;5042861;28;20025;-61
2023/07/17 08:37:14;;;;;;;13.73;5.00;;;20.60;99.90;;;;;;5041367;28;20052;-56
2023/07/17 08:39:39;;;;;;;12.85;5.22;;;20.60;99.90;;;;;;5037028;28;20060;-56
2023/07/17 08:42:06;;;;;;;15.38;5.35;;;20.60;99.90;;;;;;5035468;28;20045;-56
2023/07/17 08:44:33;;;;;;;13.60;5.25;;;20.80;99.90;;;;;;5033349;28;20038;-55
2023/07/17 08:47:05;;;;;;;11.02;4.70;;;20.80;99.90;;;;;;5023856;28;20049;-57
2023/07/17 08:49:33;;;;;;;11.25;4.65;;;20.90;99.90;;;;;;5040097;28;20033;-57
2023/07/17 08:52:01;;;;;;;15.98;14.80;;;20.80;99.90;;;;;;5040083;28;20044;-53
2023/07/17 08:54:28;;;;;;;18.85;17.17;;;21.00;99.90;;;;;;5032978;28;20045;-56
2023/07/17 08:56:55;;;;;;;11.70;9.50;;;21.00;99.90;;;;;;5035060;28;20048;-57
2023/07/17 08:59:21;;;;;;;16.60;14.90;;;20.90;99.90;;;;;;5034996;28;20122;-55
2023/07/17 09:01:49;;;;;;;10.57;4.40;;;21.00;99.90;;;;;;5039831;28;20090;-55
2023/07/17 09:04:16;;;;;;;12.82;5.20;;;21.30;99.90;;;;;;5029436;28;20134;-56
2023/07/17 09:06:41;;;;;;;11.25;6.75;;;21.70;99.90;;;;;;5037983;28;20072;-55
2023/07/17 09:09:09;;;;;;;16.48;15.38;;;21.50;99.90;;;;;;5035785;28;20566;-55
2023/07/17 09:11:35;;;;;;;12.98;12.00;;;21.50;99.90;;;;;;5041486;28;20028;-56
2023/07/17 09:14:01;;;;;;;15.30;14.18;;;21.50;99.90;;;;;;5040744;28;20130;-56
2023/07/17 09:16:26;;;;;;;10.02;9.25;;;21.60;99.90;;;;;;5034882;28;20476;-59
2023/07/17 09:18:53;;;;;;;12.77;11.85;;;21.60;99.90;;;;;;5038754;28;20028;-51
2023/07/17 09:21:20;;;;;;;14.88;13.77;;;21.70;99.90;;;;;;5042190;28;20664;-52
2023/07/17 09:23:48;;;;;;;11.30;10.48;;;22.00;99.90;;;;;;5037563;28;20507;-52
2023/07/17 09:26:14;;;;;;;8.65;6.38;;;22.00;99.90;;;;;;5032120;28;20511;-51
2023/07/17 09:28:51;;;;;;;11.68;10.77;;;22.10;99.90;;;;;;5041121;28;20036;-51
2023/07/17 09:31:27;;;;;;;10.88;10.25;;;22.10;99.90;;;;;;5028373;28;20182;-52
2023/07/17 09:33:59;;;;;;;15.00;14.05;;;22.30;99.90;;;;;;5033591;28;20554;-52
2023/07/17 09:36:25;;;;;;;7.95;7.38;;;22.10;99.90;;;;;;5031522;28;20543;-51
2023/07/17 09:38:57;;;;;;;4.45;4.10;;;21.90;99.90;;;;;;5042757;28;20120;-52
2023/07/17 09:41:25;;;;;;;5.90;5.20;;;22.00;99.90;;;;;;5039383;28;20083;-51
2023/07/17 09:44:00;;;;;;;12.35;11.45;;;22.20;99.90;;;;;;5041184;28;20495;-51
2023/07/17 09:46:34;;;;;;;5.13;2.28;;;22.20;99.90;;;;;;5041108;28;20344;-52
2023/07/17 09:49:01;;;;;;;4.68;4.10;;;22.30;99.90;;;;;;5040989;28;20132;-51
2023/07/17 09:51:26;;;;;;;3.05;2.85;;;22.10;99.90;;;;;;5036140;28;20047;-51
2023/07/17 09:53:52;;;;;;;16.40;15.48;;;21.80;99.90;;;;;;5036081;28;20028;-52
2023/07/17 09:56:19;;;;;;;5.43;4.05;;;21.70;99.90;;;;;;5042356;28;20563;-51
2023/07/17 09:58:53;;;;;;;5.75;5.25;;;21.80;99.90;;;;;;5035498;28;20538;-48
2023/07/17 10:01:22;;;;;;;4.70;4.43;;;21.80;99.90;;;;;;5028953;28;20556;-51
2023/07/17 10:03:50;;;;;;;3.75;3.42;;;21.50;99.90;;;;;;5041400;28;20048;-49
2023/07/17 10:06:18;;;;;;;2.30;2.15;;;21.40;99.90;;;;;;5040823;28;20484;-52
2023/07/17 10:08:47;;;;;;;2.28;1.58;;;21.50;99.90;;;;;;5037088;28;20385;-53
2023/07/17 10:11:17;;;;;;;0.00;0.00;;;21.40;99.90;;;;;;5043773;28;20654;-49
2023/07/17 10:13:49;;;;;;;0.00;0.00;;;21.40;99.90;;;;;;5038120;28;20448;-52
2023/07/17 10:16:17;;;;;;;0.00;0.00;;;21.40;99.90;;;;;;5037441;28;20783;-52
2023/07/17 10:19:01;;;;;;;0.10;0.00;;;21.80;99.90;;;;;;5043031;28;20544;-51
2023/07/17 10:21:27;;;;;;;27.40;25.63;;;22.10;99.90;;;;;;5045622;28;20029;-53
2023/07/17 10:23:52;;;;;;;23.55;22.13;;;22.20;99.90;;;;;;5044948;28;20537;-50
2023/07/17 10:26:21;;;;;;;8.45;5.57;;;22.50;99.90;;;;;;5034605;28;20107;-48
2023/07/17 10:28:53;;;;;;;9.35;8.52;;;23.30;99.90;;;;;;5041124;28;20044;-51
2023/07/17 10:31:23;;;;;;;11.48;8.65;;;22.60;99.90;;;;;;5041713;28;20030;-58
2023/07/17 10:33:58;;;;;;;6.85;4.00;;;22.50;99.90;;;;;;5042400;28;20025;-52
2023/07/17 10:36:43;;;;;;;6.75;4.13;;;22.20;99.90;;;;;;5039293;28;20087;-52
2023/07/17 10:39:15;;;;;;;24.15;22.63;;;22.20;99.90;;;;;;5041161;28;20485;-52
2023/07/17 10:41:41;;;;;;;11.18;4.07;;;22.10;99.90;;;;;;5040247;28;20039;-53
2023/07/17 10:44:08;;;;;;;7.75;5.90;;;21.90;99.90;;;;;;5039984;28;20029;-51
2023/07/17 10:46:37;;;;;;;10.13;8.40;;;21.70;99.90;;;;;;5034679;28;20034;-51
2023/07/17 10:49:08;;;;;;;10.02;9.23;;;21.50;99.90;;;;;;5045401;28;20377;-53
2023/07/17 10:51:33;;;;;;;6.63;3.67;;;21.50;99.90;;;;;;5043611;28;20542;-53
2023/07/17 10:53:59;;;;;;;6.15;3.00;;;21.40;99.90;;;;;;5040057;28;20059;-51
2023/07/17 10:56:25;;;;;;;8.68;7.93;;;21.60;99.90;;;;;;5043074;28;20095;-49
2023/07/17 10:58:51;;;;;;;7.65;3.55;;;21.70;99.90;;;;;;5037656;28;20446;-52
2023/07/17 11:01:17;;;;;;;7.43;4.43;;;21.80;99.90;;;;;;5035440;28;20561;-51
2023/07/17 11:03:47;;;;;;;6.45;4.80;;;21.70;99.90;;;;;;5043002;28;20037;-51
2023/07/17 11:06:16;;;;;;;7.70;4.25;;;21.80;99.90;;;;;;5037790;28;20029;-50
2023/07/17 11:08:43;;;;;;;12.43;4.32;;;21.90;99.90;;;;;;5037053;28;20151;-52
2023/07/17 11:11:09;;;;;;;5.47;4.63;;;22.00;99.90;;;;;;5040151;28;20025;-53
2023/07/17 11:13:35;;;;;;;4.93;4.53;;;22.10;99.90;;;;;;5030077;28;20625;-51
2023/07/17 11:16:10;;;;;;;3.70;2.45;;;22.00;99.90;;;;;;5032964;28;20037;-50
2023/07/17 11:18:46;;;;;;;9.05;8.45;;;22.90;99.90;;;;;;5037334;28;20705;-53
2023/07/17 11:21:13;;;;;;;11.27;10.48;;;22.60;99.90;;;;;;5035519;28;20416;-50
2023/07/17 11:23:48;;;;;;;3.72;3.10;;;22.80;99.90;;;;;;5035575;28;20581;-53
2023/07/17 11:26:16;;;;;;;6.47;2.65;;;22.70;99.90;;;;;;5037514;28;20110;-51
2023/07/17 11:28:42;;;;;;;3.60;2.05;;;22.70;99.90;;;;;;5033707;28;20083;-51
2023/07/17 11:31:28;;;;;;;4.18;1.90;;;22.60;99.90;;;;;;5037665;28;20433;-52
2023/07/17 11:33:58;;;;;;;3.72;2.67;;;22.70;99.90;;;;;;5035499;28;20029;-52
2023/07/17 11:36:44;;;;;;;2.38;1.38;;;22.80;99.90;;;;;;5039265;28;20464;-51
2023/07/17 11:39:18;;;;;;;1.33;1.10;;;22.80;99.90;;;;;;5054260;28;20029;-50
2023/07/17 11:41:46;;;;;;;0.00;0.00;;;22.70;99.90;;;;;;5029797;28;20126;-53
2023/07/17 11:44:30;;;;;;;0.00;0.00;;;22.70;99.90;;;;;;5039572;28;20061;-49
2023/07/17 11:47:01;;;;;;;0.00;0.00;;;22.80;99.90;;;;;;5041790;28;20072;-53
2023/07/17 11:49:27;;;;;;;0.20;0.10;;;22.70;99.90;;;;;;5044947;28;20801;-51
2023/07/17 11:51:54;;;;;;;0.00;0.00;;;22.60;99.90;;;;;;5041909;28;20041;-51
2023/07/17 11:54:19;;;;;;;0.00;0.00;;;22.70;99.90;;;;;;5038429;28;20563;-50
2023/07/17 11:56:45;;;;;;;0.10;0.08;;;22.90;99.90;;;;;;5036237;28;20048;-49
2023/07/17 11:59:18;;;;;;;0.00;0.00;;;23.20;99.90;;;;;;5038891;28;20032;-53
2023/07/17 12:01:44;;;;;;;0.35;0.35;;;23.10;99.90;;;;;;5045892;28;20237;-50
2023/07/17 12:04:23;;;;;;;4.65;4.35;;;23.20;99.90;;;;;;5041757;28;20502;-50
2023/07/17 12:06:49;;;;;;;2.58;2.40;;;23.30;99.90;;;;;;5036791;28;20033;-51
2023/07/17 12:09:15;;;;;;;7.38;6.97;;;23.30;99.90;;;;;;5032931;28;20213;-52
2023/07/17 12:11:44;;;;;;;3.13;2.88;;;23.40;99.90;;;;;;5039787;28;20517;-50
2023/07/17 12:14:10;;;;;;;8.95;8.38;;;23.70;99.90;;;;;;5042832;28;20048;-53
2023/07/17 12:16:35;;;;;;;8.30;7.60;;;23.70;99.90;;;;;;5037486;28;21005;-50
2023/07/17 12:19:03;;;;;;;11.95;11.10;;;23.60;99.90;;;;;;5038429;28;20044;-48
2023/07/17 12:21:28;;;;;;;11.95;11.05;;;23.60;99.90;;;;;;5037355;28;20044;-53
2023/07/17 12:23:54;;;;;;;6.65;5.50;;;23.70;99.90;;;;;;5041940;28;20132;-51
2023/07/17 12:26:20;;;;;;;8.77;7.93;;;23.20;99.90;;;;;;5033255;28;20048;-52
2023/07/17 12:28:45;;;;;;;12.00;9.63;;;23.40;99.90;;;;;;5025674;28;20029;-50
2023/07/17 12:31:11;;;;;;;9.00;3.88;;;23.30;99.90;;;;;;5043388;28;20388;-51
2023/07/17 12:33:36;;;;;;;12.52;11.52;;;23.30;99.90;;;;;;5041922;28;20033;-51
2023/07/17 12:36:02;;;;;;;5.75;4.82;;;23.10;99.90;;;;;;5042524;28;20063;-53
2023/07/17 12:38:28;;;;;;;9.13;8.52;;;23.00;99.90;;;;;;5037694;28;20033;-51